Terminal Aerodrome Forecast
Issued by NWS Jackson, MS

Home | Current Version | Previous Version | Text Only | Print | Product List | Glossary On
Versions: 1 2 3 4 5 6 7 8 9 10 11 12 13
478
FTUS44 KJAN 221341 AAA
TAFHBG
TAF AMD
KHBG 221341Z 2214/2312 VRB05G15KT 1SM +TSRA BR SCT015 BKN025CB
      OVC035
     FM221500 16008KT 4SM -RA BR VCTS BKN025 OVC040CB
     FM221700 20017G25KT 2SM TSRA BR BKN020 OVC035CB
     FM222100 28020G30KT 2SM -RA BR VCTS BKN025 OVC040CB
     FM222300 27006KT P6SM -RA OVC025
     FM230800 32008KT P6SM OVC010=

USA.gov is the U.S. government's official web portal to all federal, state and local government web resources and services.